Time;durP1;ratioP1;P1;durP2;ratioP2;P2;SDS_P1;SDS_P2;PMS_P1;PMS_P2;Temp;Humidity;BMP_temperature;BMP_pressure;BME280_temperature;BME280_humidity;BME280_pressure;Samples;Min_cycle;Max_cycle;Signal;HPM_P1;HPM_P2
2022/01/31 00:02:07;;;;;;;9.23;3.43;;;3.70;99.90;;;;;;5053101;28;20202;-81
2022/01/31 00:04:32;;;;;;;11.30;3.43;;;3.70;99.90;;;;;;5053376;28;20174;-79
2022/01/31 00:06:58;;;;;;;12.57;3.40;;;3.70;99.90;;;;;;5053459;28;20182;-80
2022/01/31 00:09:24;;;;;;;6.60;2.80;;;3.70;99.90;;;;;;5053324;28;20209;-80
2022/01/31 00:12:01;;;;;;;7.50;3.35;;;3.60;99.90;;;;;;5053322;28;20236;-80
2022/01/31 00:14:34;;;;;;;9.45;3.20;;;3.60;99.90;;;;;;5053331;28;20185;-80
2022/01/31 00:17:00;;;;;;;7.20;3.67;;;3.70;99.90;;;;;;5052772;28;20194;-80
2022/01/31 00:19:26;;;;;;;14.80;3.83;;;3.70;99.90;;;;;;5053401;28;20631;-82
2022/01/31 00:21:52;;;;;;;6.30;3.43;;;3.70;99.90;;;;;;5052975;28;20424;-83
2022/01/31 00:24:17;;;;;;;8.00;3.73;;;3.70;99.90;;;;;;5053225;28;20181;-82
2022/01/31 00:26:43;;;;;;;9.53;3.90;;;3.70;99.90;;;;;;5053187;28;20506;-82
2022/01/31 00:29:09;;;;;;;8.47;3.53;;;3.70;99.90;;;;;;5052934;28;20264;-82
2022/01/31 00:31:34;;;;;;;7.70;3.20;;;3.70;99.90;;;;;;5052771;28;20206;-80
2022/01/31 00:34:00;;;;;;;13.70;4.20;;;3.70;99.90;;;;;;5053287;28;20186;-82
2022/01/31 00:36:25;;;;;;;14.40;3.90;;;3.70;99.90;;;;;;5053126;28;20182;-81
2022/01/31 00:38:51;;;;;;;10.67;3.00;;;3.70;99.90;;;;;;5053186;28;20177;-78
2022/01/31 00:41:17;;;;;;;8.73;3.27;;;3.80;99.90;;;;;;5052586;28;20191;-80
2022/01/31 00:43:48;;;;;;;4.43;2.43;;;3.80;99.90;;;;;;5051727;28;20193;-79
2022/01/31 00:46:22;;;;;;;13.88;4.35;;;3.90;99.90;;;;;;5053026;28;20159;-79
2022/01/31 00:48:49;;;;;;;7.85;3.60;;;4.10;99.90;;;;;;5052988;28;20189;-79
2022/01/31 00:51:15;;;;;;;9.50;3.40;;;4.20;99.90;;;;;;5052454;28;20202;-77
2022/01/31 00:53:43;;;;;;;9.53;3.10;;;4.30;99.90;;;;;;5053010;28;20208;-81
2022/01/31 00:56:08;;;;;;;12.55;3.38;;;4.50;99.90;;;;;;5051727;28;20174;-80
2022/01/31 00:58:34;;;;;;;15.70;3.20;;;4.70;99.90;;;;;;5052953;28;20178;-83
2022/01/31 01:00:59;;;;;;;9.90;2.93;;;4.60;99.90;;;;;;5052552;28;20189;-79
2022/01/31 01:03:25;;;;;;;11.13;2.70;;;4.80;99.90;;;;;;5052818;28;20296;-83
2022/01/31 01:05:51;;;;;;;11.30;2.90;;;4.90;99.90;;;;;;5053039;28;20518;-81
2022/01/31 01:08:16;;;;;;;9.73;3.33;;;5.00;99.90;;;;;;5053091;28;20182;-82
2022/01/31 01:10:42;;;;;;;3.23;1.70;;;5.20;99.90;;;;;;5052573;28;20201;-81
2022/01/31 01:13:11;;;;;;;7.83;2.90;;;5.10;99.90;;;;;;5052690;28;20342;-81
2022/01/31 01:15:36;;;;;;;15.18;3.10;;;5.20;99.90;;;;;;5051905;28;20525;-82
2022/01/31 01:18:02;;;;;;;8.93;3.03;;;5.30;99.90;;;;;;5052875;28;20178;-80
2022/01/31 01:20:28;;;;;;;9.30;2.83;;;5.30;99.90;;;;;;5052778;28;20212;-82
2022/01/31 01:22:53;;;;;;;13.40;2.60;;;5.30;99.90;;;;;;5052347;28;20570;-82
2022/01/31 01:25:19;;;;;;;11.97;2.53;;;5.30;99.90;;;;;;5052795;28;20188;-80
2022/01/31 01:27:48;;;;;;;5.60;2.30;;;5.40;99.90;;;;;;5053033;28;20178;-82
2022/01/31 01:30:15;;;;;;;9.45;3.05;;;5.40;99.90;;;;;;5056457;28;20194;-79
2022/01/31 01:35:25;;;;;;;9.05;2.80;;;5.40;99.90;;;;;;5056483;28;20178;-83
2022/01/31 01:37:51;;;;;;;7.78;2.17;;;5.40;99.90;;;;;;5056451;28;20189;-82
2022/01/31 01:40:17;;;;;;;6.03;2.17;;;5.30;99.90;;;;;;5056422;28;20182;-81
2022/01/31 01:42:42;;;;;;;4.70;2.00;;;5.30;99.90;;;;;;5055991;28;20604;-83
2022/01/31 01:45:08;;;;;;;6.10;2.40;;;5.30;99.90;;;;;;5056215;28;20261;-81
2022/01/31 01:47:34;;;;;;;5.15;2.40;;;5.30;99.90;;;;;;5056326;28;20174;-83
2022/01/31 01:50:00;;;;;;;4.27;2.00;;;5.30;99.90;;;;;;5056302;28;20206;-82
2022/01/31 01:52:26;;;;;;;10.80;2.43;;;5.40;99.90;;;;;;5055646;28;20190;-82
2022/01/31 01:54:52;;;;;;;14.88;4.63;;;5.40;99.90;;;;;;5056144;28;20253;-83
2022/01/31 01:57:20;;;;;;;8.80;3.03;;;5.40;99.90;;;;;;5055983;28;20224;-81
2022/01/31 01:59:46;;;;;;;13.70;2.85;;;5.40;99.90;;;;;;5055770;28;20444;-84
2022/01/31 02:02:12;;;;;;;11.07;2.28;;;5.50;99.90;;;;;;5055558;28;20198;-82
2022/01/31 02:04:38;;;;;;;10.30;2.00;;;5.50;99.90;;;;;;5055830;28;20174;-82
2022/01/31 02:07:04;;;;;;;6.93;2.47;;;5.50;99.90;;;;;;5055875;28;20245;-83
2022/01/31 02:09:31;;;;;;;10.90;2.57;;;5.50;99.90;;;;;;5055541;28;20970;-82
2022/01/31 02:11:57;;;;;;;9.73;2.42;;;5.60;99.90;;;;;;5055363;28;20719;-82
2022/01/31 02:14:24;;;;;;;5.03;2.03;;;5.60;99.90;;;;;;5055760;28;20261;-83
2022/01/31 02:16:51;;;;;;;3.85;1.70;;;5.70;99.90;;;;;;5054545;28;20232;-82
2022/01/31 02:19:18;;;;;;;6.20;2.00;;;5.70;99.90;;;;;;5054173;28;20178;-78
2022/01/31 02:21:48;;;;;;;6.65;1.90;;;5.70;99.90;;;;;;5055036;28;20190;-82
2022/01/31 02:24:14;;;;;;;4.88;1.70;;;5.70;99.90;;;;;;5055550;28;20201;-80
2022/01/31 02:26:39;;;;;;;4.77;1.83;;;5.70;99.90;;;;;;5055554;28;20196;-82
2022/01/31 02:29:08;;;;;;;5.50;1.50;;;5.70;99.90;;;;;;5054039;28;20190;-82
2022/01/31 02:31:34;;;;;;;10.73;2.10;;;5.80;99.90;;;;;;5054801;28;20214;-80
2022/01/31 02:34:00;;;;;;;6.63;1.90;;;5.70;99.90;;;;;;5055275;28;20174;-83
2022/01/31 02:36:25;;;;;;;6.20;2.17;;;5.70;99.90;;;;;;5055260;28;20239;-81
2022/01/31 02:38:51;;;;;;;5.90;1.83;;;5.70;99.90;;;;;;5054787;28;20249;-80
2022/01/31 02:41:17;;;;;;;9.70;2.03;;;5.60;99.90;;;;;;5054782;28;20227;-81
2022/01/31 02:43:48;;;;;;;7.67;1.63;;;5.50;99.90;;;;;;5055178;28;20177;-80
2022/01/31 02:46:15;;;;;;;6.15;2.05;;;5.40;99.90;;;;;;5055261;28;20188;-81
2022/01/31 02:48:40;;;;;;;6.28;2.45;;;5.20;99.90;;;;;;5055114;28;20177;-83
2022/01/31 02:51:10;;;;;;;10.20;2.53;;;5.10;99.90;;;;;;5054638;28;20336;-84
2022/01/31 02:53:41;;;;;;;15.80;2.55;;;5.00;99.90;;;;;;5053817;28;20186;-83
2022/01/31 02:56:08;;;;;;;11.13;2.72;;;4.80;99.90;;;;;;5054849;28;20188;-85
2022/01/31 02:58:33;;;;;;;8.68;2.60;;;4.80;99.90;;;;;;5054879;28;20176;-84
2022/01/31 03:00:59;;;;;;;12.77;2.77;;;4.80;99.90;;;;;;5053240;28;20595;-84
2022/01/31 03:03:26;;;;;;;6.50;2.40;;;4.60;99.90;;;;;;5054675;28;20202;-84
2022/01/31 03:05:52;;;;;;;8.52;2.78;;;4.50;99.90;;;;;;5054729;28;20416;-84
2022/01/31 03:08:18;;;;;;;9.90;2.45;;;4.40;99.90;;;;;;5054573;28;20209;-83
2022/01/31 03:10:44;;;;;;;7.47;2.60;;;4.30;99.90;;;;;;5054056;28;20243;-84
2022/01/31 03:13:09;;;;;;;8.65;2.80;;;4.30;99.90;;;;;;5053294;28;20275;-84
2022/01/31 03:15:35;;;;;;;6.47;2.10;;;4.20;99.90;;;;;;5054496;28;20174;-84
2022/01/31 03:18:02;;;;;;;7.37;2.77;;;4.20;99.90;;;;;;5054520;28;20421;-84
2022/01/31 03:20:27;;;;;;;12.07;3.00;;;4.10;99.90;;;;;;5054327;28;20285;-84
2022/01/31 03:22:53;;;;;;;7.87;2.50;;;4.00;99.90;;;;;;5052871;28;20277;-84
2022/01/31 03:25:19;;;;;;;5.77;2.10;;;3.90;99.90;;;;;;5054164;28;20178;-85
2022/01/31 03:27:46;;;;;;;7.45;2.17;;;3.90;99.90;;;;;;5052914;28;20655;-85
2022/01/31 03:30:16;;;;;;;8.75;2.47;;;3.90;99.90;;;;;;5052752;28;20233;-84
2022/01/31 03:32:41;;;;;;;6.78;2.75;;;3.80;99.90;;;;;;5053760;28;20190;-86
2022/01/31 03:35:08;;;;;;;10.87;3.70;;;3.80;99.90;;;;;;5052757;28;20231;-85
2022/01/31 03:37:34;;;;;;;9.38;2.47;;;3.80;99.90;;;;;;5054064;28;20240;-86
2022/01/31 03:40:00;;;;;;;5.60;2.10;;;3.90;99.90;;;;;;5054086;28;20204;-85
2022/01/31 03:42:25;;;;;;;8.40;2.40;;;3.90;99.90;;;;;;5053684;28;20206;-84
2022/01/31 03:44:51;;;;;;;8.53;2.60;;;3.90;99.90;;;;;;5054133;28;20182;-85
2022/01/31 03:47:21;;;;;;;10.93;2.30;;;3.90;99.90;;;;;;5053963;28;20547;-84
2022/01/31 03:49:47;;;;;;;7.18;2.20;;;3.90;99.90;;;;;;5053834;28;20550;-84
2022/01/31 03:52:12;;;;;;;4.90;2.35;;;3.90;99.90;;;;;;5051429;28;20686;-85
2022/01/31 03:54:38;;;;;;;7.13;2.00;;;4.00;99.90;;;;;;5052461;28;20260;-84
2022/01/31 03:57:04;;;;;;;2.80;2.03;;;4.00;99.90;;;;;;5053828;28;20190;-84
2022/01/31 03:59:29;;;;;;;5.90;2.13;;;4.00;99.90;;;;;;5053747;28;20192;-83
2022/01/31 04:01:55;;;;;;;4.20;2.00;;;4.10;99.90;;;;;;5053375;28;20622;-85
2022/01/31 04:04:21;;;;;;;10.20;3.27;;;4.10;99.90;;;;;;5052306;28;20213;-85
2022/01/31 04:06:46;;;;;;;7.63;2.47;;;4.10;99.90;;;;;;5053620;28;20236;-85
2022/01/31 04:09:12;;;;;;;3.47;2.30;;;4.20;99.90;;;;;;5052455;28;20549;-84
2022/01/31 04:11:37;;;;;;;5.77;2.33;;;4.20;99.90;;;;;;5053102;28;20220;-84
2022/01/31 04:14:03;;;;;;;6.07;2.00;;;4.20;99.90;;;;;;5052385;28;20178;-85
2022/01/31 04:16:29;;;;;;;4.30;2.50;;;4.30;99.90;;;;;;5035514;28;20182;-85
2022/01/31 04:18:54;;;;;;;3.60;1.93;;;4.30;99.90;;;;;;5052089;28;20187;-84
2022/01/31 04:21:21;;;;;;;10.57;2.70;;;4.40;99.90;;;;;;5051650;28;20482;-83
2022/01/31 04:23:47;;;;;;;6.05;2.13;;;4.40;99.90;;;;;;5053428;28;20185;-84
2022/01/31 04:26:15;;;;;;;6.82;2.67;;;4.30;99.90;;;;;;5053356;28;20210;-85
2022/01/31 04:28:44;;;;;;;4.18;1.80;;;4.40;99.90;;;;;;5051832;28;20198;-84
2022/01/31 04:33:37;;;;;;;4.38;1.92;;;4.50;99.90;;;;;;5053518;28;20205;-85
2022/01/31 04:36:02;;;;;;;2.60;2.40;;;4.50;99.90;;;;;;5053235;28;20304;-85
2022/01/31 04:38:28;;;;;;;2.70;2.07;;;4.50;99.90;;;;;;5051893;28;20418;-85
2022/01/31 04:40:54;;;;;;;5.23;2.70;;;4.60;99.90;;;;;;5052829;28;20422;-86
2022/01/31 04:43:23;;;;;;;7.50;2.90;;;4.70;99.90;;;;;;5051810;28;20288;-85
2022/01/31 04:45:49;;;;;;;1.95;1.75;;;4.80;99.90;;;;;;5051877;28;20178;-86
2022/01/31 04:48:17;;;;;;;10.32;4.65;;;4.80;99.90;;;;;;5051790;28;20185;-86
2022/01/31 04:50:43;;;;;;;9.88;3.67;;;4.90;99.90;;;;;;5052588;28;20230;-86
2022/01/31 04:53:10;;;;;;;2.75;1.88;;;4.90;99.90;;;;;;5051944;28;20215;-84
2022/01/31 04:55:36;;;;;;;4.80;2.65;;;5.00;99.90;;;;;;5053100;28;20177;-84
2022/01/31 04:58:02;;;;;;;5.40;2.53;;;5.10;99.90;;;;;;5053068;28;20191;-84
2022/01/31 05:00:28;;;;;;;4.72;2.90;;;5.10;99.90;;;;;;5051663;28;20420;-84
2022/01/31 05:02:54;;;;;;;5.17;2.73;;;5.20;99.90;;;;;;5054584;28;20214;-83
2022/01/31 05:05:20;;;;;;;4.53;2.73;;;5.20;99.90;;;;;;5055848;28;20178;-83
2022/01/31 05:07:45;;;;;;;6.30;3.53;;;5.20;99.90;;;;;;5055980;28;20198;-84
2022/01/31 05:10:11;;;;;;;8.50;3.60;;;5.30;99.90;;;;;;5055615;28;20192;-85
2022/01/31 05:12:37;;;;;;;12.07;3.70;;;5.40;99.90;;;;;;5056474;28;20243;-84
2022/01/31 05:15:04;;;;;;;6.00;3.20;;;5.40;99.90;;;;;;5055495;28;20519;-84
2022/01/31 05:17:30;;;;;;;7.22;3.60;;;5.40;99.90;;;;;;5056717;28;20423;-84
2022/01/31 05:19:55;;;;;;;8.37;2.77;;;5.50;99.90;;;;;;5056876;28;20541;-84
2022/01/31 05:22:21;;;;;;;4.33;3.30;;;5.50;99.90;;;;;;5055121;28;20205;-83
2022/01/31 05:24:47;;;;;;;6.93;4.17;;;5.50;99.90;;;;;;5056691;28;20178;-83
2022/01/31 05:27:13;;;;;;;6.47;3.20;;;5.50;99.90;;;;;;5055250;28;20188;-84
2022/01/31 05:29:38;;;;;;;14.50;3.15;;;5.50;99.90;;;;;;5055188;28;20550;-83
2022/01/31 05:32:04;;;;;;;5.73;3.53;;;5.50;99.90;;;;;;5056087;28;20198;-83
2022/01/31 05:34:30;;;;;;;13.07;4.00;;;5.50;99.90;;;;;;5056433;28;20693;-84
2022/01/31 05:36:56;;;;;;;13.50;3.73;;;5.50;99.90;;;;;;5055160;28;20178;-83
2022/01/31 05:39:26;;;;;;;9.93;3.80;;;5.60;99.90;;;;;;5038440;28;20663;-83
2022/01/31 05:41:52;;;;;;;4.53;3.08;;;5.60;99.90;;;;;;5055852;28;20441;-83
2022/01/31 05:44:19;;;;;;;6.78;4.43;;;5.60;99.90;;;;;;5056228;28;20174;-83
2022/01/31 05:46:44;;;;;;;13.00;3.10;;;5.60;99.90;;;;;;5056288;28;20231;-83
2022/01/31 05:49:10;;;;;;;10.80;3.70;;;5.60;99.90;;;;;;5055021;28;20178;-83
2022/01/31 05:51:51;;;;;;;5.80;3.23;;;5.60;99.90;;;;;;5055666;28;20214;-83
2022/01/31 05:54:17;;;;;;;3.30;2.42;;;5.60;99.90;;;;;;5056158;28;20413;-83
2022/01/31 05:56:42;;;;;;;13.80;3.80;;;5.60;99.90;;;;;;5054471;28;20642;-83
2022/01/31 05:59:08;;;;;;;7.27;3.10;;;5.60;99.90;;;;;;5055887;28;20185;-83
2022/01/31 06:01:38;;;;;;;10.60;3.23;;;5.60;99.90;;;;;;5055540;28;20199;-83
2022/01/31 06:04:05;;;;;;;12.85;3.90;;;5.70;99.90;;;;;;5055991;28;20186;-83
2022/01/31 06:06:30;;;;;;;13.25;3.40;;;5.70;99.90;;;;;;5056043;28;20304;-83
2022/01/31 06:08:56;;;;;;;10.67;2.13;;;5.60;99.90;;;;;;5055778;28;20203;-84
2022/01/31 06:11:21;;;;;;;6.60;2.93;;;5.60;99.90;;;;;;5055319;28;20570;-84
2022/01/31 06:13:48;;;;;;;4.60;2.27;;;5.60;99.90;;;;;;5053654;28;20237;-83
2022/01/31 06:16:13;;;;;;;3.83;2.35;;;5.70;99.90;;;;;;5054473;28;20176;-85
2022/01/31 06:18:39;;;;;;;12.43;2.90;;;5.70;99.90;;;;;;5054335;28;20253;-84
2022/01/31 06:21:04;;;;;;;6.63;2.63;;;5.70;99.90;;;;;;5055158;28;20224;-84
2022/01/31 06:23:30;;;;;;;7.83;2.73;;;5.70;99.90;;;;;;5055281;28;20233;-83
2022/01/31 06:25:55;;;;;;;5.77;2.17;;;5.80;99.90;;;;;;5054352;28;20178;-83
2022/01/31 06:28:21;;;;;;;4.67;1.60;;;5.80;99.90;;;;;;5055331;28;20194;-83
2022/01/31 06:30:47;;;;;;;4.27;1.50;;;5.80;99.90;;;;;;5055124;28;20232;-82
2022/01/31 06:33:16;;;;;;;13.90;1.70;;;5.70;99.90;;;;;;5055269;28;20194;-83
2022/01/31 06:35:45;;;;;;;3.53;2.08;;;5.80;99.90;;;;;;5053985;28;20175;-82
2022/01/31 06:38:11;;;;;;;9.15;2.10;;;5.70;99.90;;;;;;5054324;28;20235;-83
2022/01/31 06:40:36;;;;;;;11.50;1.93;;;5.70;99.90;;;;;;5053985;28;20178;-83
2022/01/31 06:43:02;;;;;;;8.20;2.53;;;5.70;99.90;;;;;;5054876;28;20852;-83
2022/01/31 06:45:28;;;;;;;8.73;2.10;;;5.70;99.90;;;;;;5055088;28;20174;-83
2022/01/31 06:47:53;;;;;;;9.83;2.20;;;5.80;99.90;;;;;;5055019;28;20212;-83
2022/01/31 06:50:19;;;;;;;6.07;2.77;;;5.80;99.90;;;;;;5055197;28;20202;-83
2022/01/31 06:52:44;;;;;;;3.60;1.80;;;5.80;99.90;;;;;;5053420;28;20281;-83
2022/01/31 06:55:19;;;;;;;9.40;1.90;;;5.70;99.90;;;;;;5054789;28;20178;-83
2022/01/31 06:57:45;;;;;;;7.00;2.42;;;5.70;99.90;;;;;;5054755;28;20192;-84
2022/01/31 07:00:12;;;;;;;8.35;2.00;;;5.60;99.90;;;;;;5054901;28;20178;-83
2022/01/31 07:02:38;;;;;;;4.68;2.50;;;5.60;99.90;;;;;;5054300;28;20220;-83
2022/01/31 07:05:06;;;;;;;9.52;1.90;;;5.50;99.90;;;;;;5054567;28;20182;-84
2022/01/31 07:07:32;;;;;;;9.18;2.03;;;5.50;99.90;;;;;;5054710;28;20646;-85
2022/01/31 07:10:01;;;;;;;7.87;2.97;;;5.40;99.90;;;;;;5053221;28;20288;-84
2022/01/31 07:12:32;;;;;;;9.48;2.25;;;5.20;99.90;;;;;;5054136;28;20519;-84
2022/01/31 07:14:58;;;;;;;6.03;2.25;;;5.10;99.90;;;;;;5054556;28;20172;-84
2022/01/31 07:17:24;;;;;;;4.40;2.38;;;5.10;99.90;;;;;;5054573;28;20174;-84
2022/01/31 07:19:49;;;;;;;9.47;2.17;;;5.10;99.90;;;;;;5053184;28;20671;-85
2022/01/31 07:22:15;;;;;;;9.33;2.70;;;5.10;99.90;;;;;;5053909;28;20198;-85
2022/01/31 07:24:46;;;;;;;3.78;1.70;;;5.00;99.90;;;;;;5054461;28;20252;-85
2022/01/31 07:27:12;;;;;;;6.75;3.25;;;4.90;99.90;;;;;;5053387;28;20173;-83
2022/01/31 07:29:38;;;;;;;4.10;2.30;;;4.90;99.90;;;;;;5054129;28;20629;-82
2022/01/31 07:32:07;;;;;;;5.35;2.38;;;4.90;99.90;;;;;;5053783;28;20530;-83
2022/01/31 07:34:33;;;;;;;2.25;1.85;;;4.70;99.90;;;;;;5054146;28;20189;-83
2022/01/31 07:36:58;;;;;;;17.53;3.10;;;4.60;99.90;;;;;;5054193;28;20182;-84
2022/01/31 07:39:24;;;;;;;4.50;1.80;;;4.50;99.90;;;;;;5054121;28;20700;-83
2022/01/31 07:41:50;;;;;;;5.18;2.00;;;4.50;99.90;;;;;;5053765;28;20560;-84
2022/01/31 07:44:16;;;;;;;10.43;3.50;;;4.50;99.90;;;;;;5053917;28;20232;-84
2022/01/31 07:46:42;;;;;;;8.98;2.17;;;4.50;99.90;;;;;;5053974;28;20174;-85
2022/01/31 07:49:08;;;;;;;6.78;2.83;;;4.50;99.90;;;;;;5054101;28;20197;-85
2022/01/31 07:51:37;;;;;;;14.35;2.58;;;4.60;99.90;;;;;;5053567;28;20240;-86
2022/01/31 07:54:03;;;;;;;6.47;2.65;;;4.60;99.90;;;;;;5036373;28;20196;-86
2022/01/31 07:56:29;;;;;;;7.80;2.13;;;4.60;99.90;;;;;;5053793;28;20173;-86
2022/01/31 07:58:54;;;;;;;14.03;3.70;;;4.70;99.90;;;;;;5052622;28;20178;-85
2022/01/31 08:01:20;;;;;;;16.03;2.60;;;4.70;99.90;;;;;;5052324;28;20193;-84
2022/01/31 08:03:47;;;;;;;12.90;2.83;;;4.70;99.90;;;;;;5054013;28;20178;-84
2022/01/31 08:06:13;;;;;;;7.25;2.28;;;4.70;99.90;;;;;;5052678;28;20562;-86
2022/01/31 08:08:39;;;;;;;5.75;1.55;;;4.80;99.90;;;;;;5053506;28;20198;-85
2022/01/31 08:11:05;;;;;;;3.67;1.67;;;4.80;99.90;;;;;;5053330;28;20264;-84
2022/01/31 08:13:33;;;;;;;11.82;2.58;;;4.90;99.90;;;;;;5053504;28;20189;-85
2022/01/31 08:18:41;;;;;;;8.35;2.10;;;4.90;99.90;;;;;;5053391;28;20519;-83
2022/01/31 08:21:08;;;;;;;4.03;2.13;;;5.00;99.90;;;;;;5053145;28;20526;-84
2022/01/31 08:23:34;;;;;;;10.57;2.45;;;5.00;99.90;;;;;;5035576;28;20193;-84
2022/01/31 08:26:02;;;;;;;5.15;1.90;;;4.90;99.90;;;;;;5053357;28;20533;-85
2022/01/31 08:31:05;;;;;;;7.60;1.88;;;5.00;99.90;;;;;;5053628;28;20205;-84
2022/01/31 08:33:38;;;;;;;9.25;1.75;;;4.90;99.90;;;;;;5052438;28;20209;-83
2022/01/31 08:36:07;;;;;;;4.32;1.75;;;4.90;99.90;;;;;;5053695;28;20528;-84
2022/01/31 08:38:37;;;;;;;4.07;2.10;;;4.90;99.90;;;;;;5053485;28;20249;-84
2022/01/31 08:41:04;;;;;;;13.40;1.85;;;4.90;99.90;;;;;;5052392;28;20580;-83
2022/01/31 08:43:29;;;;;;;6.25;2.05;;;4.90;99.90;;;;;;5054202;28;20235;-83
2022/01/31 08:45:56;;;;;;;4.17;1.73;;;4.80;99.90;;;;;;5052236;28;20197;-84
2022/01/31 08:48:24;;;;;;;6.32;2.20;;;4.80;99.90;;;;;;5035860;28;20186;-83
2022/01/31 08:50:50;;;;;;;5.57;1.85;;;4.90;99.90;;;;;;5053232;28;20198;-82
2022/01/31 08:53:15;;;;;;;4.57;1.77;;;4.90;99.90;;;;;;5053762;28;20197;-83
2022/01/31 08:55:48;;;;;;;4.00;2.50;;;4.80;99.90;;;;;;5053656;28;20409;-84
2022/01/31 08:58:14;;;;;;;8.68;2.20;;;4.90;99.90;;;;;;5053521;28;20178;-84
2022/01/31 09:00:40;;;;;;;12.05;2.75;;;4.90;99.90;;;;;;5054869;28;20189;-84
2022/01/31 09:05:38;;;;;;;6.00;1.80;;;4.80;99.90;;;;;;5054489;28;20174;-84
2022/01/31 09:08:04;;;;;;;5.43;1.90;;;4.80;99.90;;;;;;5053863;28;20186;-85
2022/01/31 09:10:29;;;;;;;10.30;2.57;;;4.70;99.90;;;;;;5053664;28;20564;-84
2022/01/31 09:12:56;;;;;;;11.23;2.00;;;4.70;99.90;;;;;;5052187;28;20266;-85
2022/01/31 09:15:22;;;;;;;3.88;1.73;;;4.60;99.90;;;;;;5052540;28;20170;-83
2022/01/31 09:17:47;;;;;;;11.17;1.87;;;4.60;99.90;;;;;;5052553;28;20607;-84
2022/01/31 09:20:13;;;;;;;14.33;3.20;;;4.50;99.90;;;;;;5052067;28;20463;-84
2022/01/31 09:22:41;;;;;;;4.10;1.27;;;4.50;99.90;;;;;;5053157;28;20528;-84
2022/01/31 09:25:07;;;;;;;6.88;1.92;;;4.50;99.90;;;;;;5035916;28;20507;-85
2022/01/31 09:27:33;;;;;;;6.72;2.03;;;4.50;99.90;;;;;;5035878;28;20190;-86
2022/01/31 09:29:59;;;;;;;3.42;1.58;;;4.50;99.90;;;;;;5053201;28;20233;-85
2022/01/31 09:32:25;;;;;;;5.60;2.10;;;4.50;99.90;;;;;;5051838;28;20229;-85
2022/01/31 09:34:52;;;;;;;5.53;1.33;;;4.50;99.90;;;;;;5035745;28;20205;-86
2022/01/31 09:37:21;;;;;;;10.07;2.40;;;4.50;99.90;;;;;;5053348;28;20172;-86
2022/01/31 09:39:50;;;;;;;4.82;2.05;;;4.40;99.90;;;;;;5053027;28;20185;-84
2022/01/31 09:42:26;;;;;;;9.20;1.90;;;4.40;99.90;;;;;;5052891;28;20190;-85
2022/01/31 09:48:30;;;;;;;8.40;1.87;;;4.40;99.90;;;;;;5053902;28;20181;-85
2022/01/31 09:50:09;;;;;;;8.90;2.38;;;4.40;99.90;;;;;;5054007;28;20206;-82
2022/01/31 09:52:35;;;;;;;7.28;2.80;;;4.40;99.90;;;;;;5056156;28;20197;-83
2022/01/31 09:55:01;;;;;;;10.63;2.43;;;4.40;99.90;;;;;;5034916;28;20540;-83
2022/01/31 09:57:26;;;;;;;6.90;2.90;;;4.30;99.90;;;;;;5048261;28;20240;-85
2022/01/31 09:59:52;;;;;;;11.73;2.50;;;4.30;99.90;;;;;;5056808;28;20244;-84
2022/01/31 10:02:18;;;;;;;8.20;2.60;;;4.30;99.90;;;;;;5057588;28;20627;-86
2022/01/31 10:04:48;;;;;;;11.27;3.30;;;4.40;99.90;;;;;;5059015;28;20202;-84
2022/01/31 10:07:15;;;;;;;13.93;3.13;;;4.30;99.90;;;;;;5058964;28;20257;-85
2022/01/31 10:09:46;;;;;;;9.82;2.63;;;4.40;99.90;;;;;;5057685;28;20182;-85
2022/01/31 10:16:25;;;;;;;12.48;2.78;;;4.40;99.90;;;;;;5056426;28;20190;-84
2022/01/31 10:18:00;;;;;;;9.98;2.60;;;4.30;99.90;;;;;;5047406;28;20177;-85
2022/01/31 10:20:29;;;;;;;9.38;2.30;;;4.30;99.90;;;;;;5055817;28;20185;-83
2022/01/31 10:23:16;;;;;;;9.45;2.58;;;4.30;99.90;;;;;;5055505;28;20254;-83
2022/01/31 10:25:43;;;;;;;11.90;2.53;;;4.30;99.90;;;;;;5055328;28;20240;-85
2022/01/31 10:28:23;;;;;;;7.15;2.45;;;4.30;99.90;;;;;;5055901;28;20205;-84
2022/01/31 10:30:52;;;;;;;15.48;2.13;;;4.30;99.90;;;;;;5055883;28;20572;-84
2022/01/31 10:33:18;;;;;;;10.23;2.55;;;4.30;99.90;;;;;;5055555;28;20584;-85
2022/01/31 10:35:44;;;;;;;10.13;2.50;;;4.30;99.90;;;;;;5038264;28;20291;-85
2022/01/31 10:38:13;;;;;;;7.80;2.40;;;4.30;99.90;;;;;;5055485;28;20674;-83
2022/01/31 10:46:09;;;;;;;9.18;2.15;;;4.50;99.90;;;;;;5055656;28;20186;-84
2022/01/31 10:54:59;;;;;;;11.38;2.35;;;4.50;99.90;;;;;;5055634;28;20163;-83
2022/01/31 10:57:24;;;;;;;20.00;4.22;;;4.50;99.90;;;;;;5047645;28;20293;-84
2022/01/31 10:59:55;;;;;;;9.25;2.40;;;4.50;99.90;;;;;;5046779;28;20171;-82
2022/01/31 11:02:24;;;;;;;19.45;3.05;;;4.50;99.90;;;;;;5054858;28;20190;-81
2022/01/31 11:04:50;;;;;;;7.90;2.03;;;4.50;99.90;;;;;;5055001;28;20541;-80
2022/01/31 11:07:18;;;;;;;13.75;2.38;;;4.40;99.90;;;;;;5054009;28;20233;-82
2022/01/31 11:09:46;;;;;;;16.83;3.63;;;4.40;99.90;;;;;;5054551;28;20224;-83
2022/01/31 11:12:12;;;;;;;9.35;2.35;;;4.40;99.90;;;;;;5053034;28;20678;-83
2022/01/31 11:14:41;;;;;;;6.13;2.85;;;4.40;99.90;;;;;;5054574;28;20182;-83
2022/01/31 11:17:10;;;;;;;6.20;2.65;;;4.50;99.90;;;;;;5054500;28;20173;-82
2022/01/31 11:19:37;;;;;;;6.63;1.83;;;4.40;99.90;;;;;;5053162;28;20174;-83
2022/01/31 11:22:11;;;;;;;8.90;2.67;;;4.40;99.90;;;;;;5053865;28;20214;-84
2022/01/31 11:24:48;;;;;;;11.82;2.72;;;4.50;99.90;;;;;;5053188;28;20173;-83
2022/01/31 11:27:18;;;;;;;12.35;2.90;;;4.50;99.90;;;;;;5054357;28;20193;-83
2022/01/31 11:29:46;;;;;;;12.85;2.95;;;4.50;99.90;;;;;;5052847;28;20186;-85
2022/01/31 11:32:12;;;;;;;13.38;4.35;;;4.50;99.90;;;;;;5053901;28;20186;-84
2022/01/31 11:34:41;;;;;;;16.85;3.50;;;4.50;99.90;;;;;;5054176;28;20206;-81
2022/01/31 11:37:12;;;;;;;21.50;3.25;;;4.50;99.90;;;;;;5040560;28;20166;-83
2022/01/31 11:39:41;;;;;;;15.02;2.95;;;4.50;99.90;;;;;;5054133;28;20169;-83
2022/01/31 11:42:07;;;;;;;18.02;3.38;;;4.50;99.90;;;;;;5053660;28;20194;-83
2022/01/31 11:44:36;;;;;;;22.77;4.88;;;4.50;99.90;;;;;;5052518;28;20211;-83
2022/01/31 11:47:04;;;;;;;6.10;2.85;;;4.50;99.90;;;;;;5053695;28;20178;-84
2022/01/31 11:49:47;;;;;;;7.90;1.73;;;4.60;99.90;;;;;;5052450;28;20178;-83
2022/01/31 11:52:14;;;;;;;14.85;3.55;;;4.60;99.90;;;;;;5053575;28;20223;-83
2022/01/31 11:54:57;;;;;;;19.52;3.72;;;4.60;99.90;;;;;;5035933;28;20186;-83
2022/01/31 11:57:31;;;;;;;19.55;4.03;;;4.60;99.90;;;;;;5053709;28;20164;-83
2022/01/31 11:59:59;;;;;;;20.08;4.20;;;4.60;99.90;;;;;;5053765;28;20647;-84
2022/01/31 12:02:31;;;;;;;16.25;3.22;;;4.60;99.90;;;;;;5053115;28;20202;-83
2022/01/31 12:05:01;;;;;;;8.68;3.30;;;4.60;99.90;;;;;;5053898;28;20190;-85
2022/01/31 12:07:32;;;;;;;26.50;4.50;;;4.50;99.90;;;;;;5053619;28;20174;-85
2022/01/31 12:10:00;;;;;;;14.70;3.55;;;4.50;99.90;;;;;;5052241;28;20223;-83
2022/01/31 12:12:36;;;;;;;10.50;3.25;;;4.60;99.90;;;;;;5052349;28;20542;-83
2022/01/31 12:15:32;;;;;;;12.93;4.60;;;4.50;99.90;;;;;;5053630;28;20184;-84
2022/01/31 12:23:59;;;;;;;10.70;3.00;;;4.50;99.90;;;;;;5053501;28;20196;-84
2022/01/31 12:26:39;;;;;;;9.02;2.42;;;4.50;99.90;;;;;;5053331;28;20177;-86
2022/01/31 12:29:13;;;;;;;12.98;4.40;;;4.50;99.90;;;;;;5053438;28;20189;-85
2022/01/31 12:31:43;;;;;;;7.45;2.38;;;4.50;99.90;;;;;;5051602;28;20748;-85
2022/01/31 12:34:10;;;;;;;12.57;3.20;;;4.50;99.90;;;;;;5053318;28;20646;-85
2022/01/31 12:36:36;;;;;;;12.73;3.05;;;4.50;99.90;;;;;;5053239;28;20178;-83
2022/01/31 12:39:04;;;;;;;23.10;3.23;;;4.50;99.90;;;;;;5052107;28;20245;-83
2022/01/31 12:41:31;;;;;;;10.40;3.85;;;4.50;99.90;;;;;;5052941;28;20201;-83
2022/01/31 12:44:36;;;;;;;24.77;3.67;;;4.50;99.90;;;;;;5053314;28;20179;-84
2022/01/31 12:47:17;;;;;;;12.02;2.67;;;4.50;99.90;;;;;;5041296;28;20243;-84
2022/01/31 12:49:44;;;;;;;12.82;2.83;;;4.50;99.90;;;;;;5053105;28;20256;-83
2022/01/31 12:52:11;;;;;;;10.50;3.40;;;4.40;99.90;;;;;;5052746;28;20198;-83
2022/01/31 12:54:38;;;;;;;22.83;4.13;;;4.40;99.90;;;;;;5051849;28;20575;-84
2022/01/31 12:57:13;;;;;;;17.13;3.90;;;4.40;99.90;;;;;;5051685;28;20261;-84
2022/01/31 12:59:41;;;;;;;23.20;3.33;;;4.40;99.90;;;;;;5051744;28;20185;-85
2022/01/31 13:02:09;;;;;;;18.35;4.00;;;4.40;99.90;;;;;;5052792;28;20198;-83
2022/01/31 13:04:36;;;;;;;20.55;3.83;;;4.40;99.90;;;;;;5052952;28;20170;-83
2022/01/31 13:07:04;;;;;;;19.33;3.65;;;4.40;99.90;;;;;;5052947;28;20195;-83
2022/01/31 13:09:37;;;;;;;21.08;5.32;;;4.30;99.90;;;;;;5052824;28;20167;-83
2022/01/31 13:12:06;;;;;;;12.23;2.92;;;4.30;99.90;;;;;;5052662;28;20198;-83
2022/01/31 13:14:36;;;;;;;19.83;4.65;;;4.40;99.90;;;;;;5051580;28;20212;-84
2022/01/31 13:17:17;;;;;;;17.42;3.95;;;4.40;99.90;;;;;;5052821;28;20257;-84
2022/01/31 13:19:48;;;;;;;17.55;4.15;;;4.40;99.90;;;;;;5052673;28;20162;-85
2022/01/31 13:22:26;;;;;;;16.23;3.25;;;4.50;99.90;;;;;;5051082;28;20194;-82
2022/01/31 13:25:06;;;;;;;13.68;3.50;;;4.50;99.90;;;;;;5056306;28;20245;-84
2022/01/31 13:27:44;;;;;;;27.55;3.55;;;4.50;99.90;;;;;;5055550;28;20169;-85
2022/01/31 13:30:17;;;;;;;12.38;2.95;;;4.50;99.90;;;;;;5056612;28;20199;-84
2022/01/31 13:32:43;;;;;;;13.10;4.10;;;4.20;99.90;;;;;;5056196;28;20248;-84